If you wish to contribute or participate in the discussions about articles you are invited to join SKYbrary as a registered user

 Actions

Helsinki/Vantaa

From SKYbrary Wiki

EFHK /
Revision as of 10:06, 15 June 2010 by Editor1 (talk | contribs)
Airport
ICAO: EFHK
Summary
Name Helsinki/Vantaa
Region Europe
Territory Finland FI.gif
Location Helsinki, Finland
Serving
Coordinates 60° 19' 0.00" N, 24° 58' 20.00" E
Runways
Designator Length Width Surface ROPS
04L/22R 3060 m10,039.37 ft <br /> 60 m196.85 ft <br /> ASP yes/yes
04R/22L 3440 m11,286.089 ft <br /> 60 m196.85 ft <br /> ASP yes/yes
15/33 2901 m9,517.717 ft <br /> 60 m196.85 ft <br /> ASP yes/yes


METAR
Observation EFHK 051450Z 34010KT 9999 FEW043 M02/M11 Q1016 NOSIG
Station Helsinki-Vantaa
Date/Time 05 March 2021 14:50:00
Wind direction 340°
Wind speed 10 kts
Lowest cloud amount few clouds
Temperature
Dew point
Humidity 50%
QNH 1016 hPa
Weather condition n/a


Helsinki/Vantaa Airport

ICAO: EFHK IATA: HEL

Description

International airport serving capital city of Finland.

Climatology

Humid Continental climate (Köppen climate classification Dfb) - Variable weather patterns and a large seasonal temperature variance. Summers are often warm and humid with frequent thunderstorms and winters can be very cold with frequent snowfall and persistent snow cover.

Maps

Terrain

Loading map...

Airport Layout

Loading map...

Accidents & Serious Incidents at or in vicinity of EFHK